sensor_id;sensor_type;location;lat;lon;timestamp;temperature;humidity
52609;DHT22;38503;48.544;12.142;2022-09-06T00:00:12;16.70;99.90
52609;DHT22;38503;48.544;12.142;2022-09-06T00:02:41;16.70;99.90
52609;DHT22;38503;48.544;12.142;2022-09-06T00:05:10;16.60;99.90
52609;DHT22;38503;48.544;12.142;2022-09-06T00:07:37;16.60;99.90
52609;DHT22;38503;48.544;12.142;2022-09-06T00:10:05;16.60;99.90
52609;DHT22;38503;48.544;12.142;2022-09-06T00:12:33;16.60;99.90
52609;DHT22;38503;48.544;12.142;2022-09-06T00:15:00;16.50;99.90
52609;DHT22;38503;48.544;12.142;2022-09-06T00:17:27;16.50;99.90
52609;DHT22;38503;48.544;12.142;2022-09-06T00:19:54;16.50;99.90
52609;DHT22;38503;48.544;12.142;2022-09-06T00:22:21;16.50;99.90
52609;DHT22;38503;48.544;12.142;2022-09-06T00:24:48;16.40;99.90
52609;DHT22;38503;48.544;12.142;2022-09-06T00:27:15;16.40;99.90
52609;DHT22;38503;48.544;12.142;2022-09-06T00:29:42;16.30;99.90
52609;DHT22;38503;48.544;12.142;2022-09-06T00:32:09;16.30;99.90
52609;DHT22;38503;48.544;12.142;2022-09-06T00:34:39;16.20;99.90
52609;DHT22;38503;48.544;12.142;2022-09-06T00:37:10;16.20;99.90
52609;DHT22;38503;48.544;12.142;2022-09-06T00:39:40;16.20;99.90
52609;DHT22;38503;48.544;12.142;2022-09-06T00:42:11;16.20;99.90
52609;DHT22;38503;48.544;12.142;2022-09-06T00:44:43;16.10;99.90
52609;DHT22;38503;48.544;12.142;2022-09-06T00:47:16;16.20;99.90
52609;DHT22;38503;48.544;12.142;2022-09-06T00:50:00;16.10;99.90
52609;DHT22;38503;48.544;12.142;2022-09-06T00:52:37;16.10;99.90
52609;DHT22;38503;48.544;12.142;2022-09-06T00:55:12;16.10;99.90
52609;DHT22;38503;48.544;12.142;2022-09-06T00:57:40;16.00;99.90
52609;DHT22;38503;48.544;12.142;2022-09-06T01:00:13;16.00;99.90
52609;DHT22;38503;48.544;12.142;2022-09-06T01:02:41;16.00;99.90
52609;DHT22;38503;48.544;12.142;2022-09-06T01:05:13;16.00;99.90
52609;DHT22;38503;48.544;12.142;2022-09-06T01:10:48;15.90;99.90
52609;DHT22;38503;48.544;12.142;2022-09-06T01:13:42;15.90;99.90
52609;DHT22;38503;48.544;12.142;2022-09-06T01:21:31;15.90;99.90
52609;DHT22;38503;48.544;12.142;2022-09-06T01:24:39;15.90;99.90
52609;DHT22;38503;48.544;12.142;2022-09-06T01:30:08;15.90;99.90
52609;DHT22;38503;48.544;12.142;2022-09-06T01:35:57;15.70;99.90
52609;DHT22;38503;48.544;12.142;2022-09-06T01:38:27;15.70;99.90
52609;DHT22;38503;48.544;12.142;2022-09-06T01:40:54;15.70;99.90
52609;DHT22;38503;48.544;12.142;2022-09-06T01:43:29;15.70;99.90
52609;DHT22;38503;48.544;12.142;2022-09-06T01:46:29;15.60;99.90
52609;DHT22;38503;48.544;12.142;2022-09-06T02:00:44;15.50;99.90
52609;DHT22;38503;48.544;12.142;2022-09-06T02:03:57;15.50;99.90
52609;DHT22;38503;48.544;12.142;2022-09-06T02:06:49;15.50;99.90
52609;DHT22;38503;48.544;12.142;2022-09-06T02:09:32;15.50;99.90
52609;DHT22;38503;48.544;12.142;2022-09-06T02:12:13;15.50;99.90
52609;DHT22;38503;48.544;12.142;2022-09-06T02:14:54;15.40;99.90
52609;DHT22;38503;48.544;12.142;2022-09-06T02:17:26;15.40;99.90
52609;DHT22;38503;48.544;12.142;2022-09-06T02:22:38;15.30;99.90
52609;DHT22;38503;48.544;12.142;2022-09-06T02:25:09;15.30;99.90
52609;DHT22;38503;48.544;12.142;2022-09-06T02:27:38;15.30;99.90
52609;DHT22;38503;48.544;12.142;2022-09-06T02:30:20;15.30;99.90
52609;DHT22;38503;48.544;12.142;2022-09-06T02:33:05;15.20;99.90
52609;DHT22;38503;48.544;12.142;2022-09-06T02:35:45;15.20;99.90
52609;DHT22;38503;48.544;12.142;2022-09-06T02:38:13;15.20;99.90
52609;DHT22;38503;48.544;12.142;2022-09-06T02:40:41;15.20;99.90
52609;DHT22;38503;48.544;12.142;2022-09-06T02:43:10;15.20;99.90
52609;DHT22;38503;48.544;12.142;2022-09-06T02:45:42;15.10;99.90
52609;DHT22;38503;48.544;12.142;2022-09-06T02:48:12;15.10;99.90
52609;DHT22;38503;48.544;12.142;2022-09-06T02:50:49;15.10;99.90
52609;DHT22;38503;48.544;12.142;2022-09-06T02:53:16;15.20;99.90
52609;DHT22;38503;48.544;12.142;2022-09-06T02:55:54;15.20;99.90
52609;DHT22;38503;48.544;12.142;2022-09-06T02:58:23;15.20;99.90
52609;DHT22;38503;48.544;12.142;2022-09-06T03:00:52;15.20;99.90
52609;DHT22;38503;48.544;12.142;2022-09-06T03:03:20;15.20;99.90
52609;DHT22;38503;48.544;12.142;2022-09-06T03:05:55;15.10;99.90
52609;DHT22;38503;48.544;12.142;2022-09-06T03:08:23;15.00;99.90
52609;DHT22;38503;48.544;12.142;2022-09-06T03:11:05;15.00;99.90
52609;DHT22;38503;48.544;12.142;2022-09-06T03:13:32;15.00;99.90
52609;DHT22;38503;48.544;12.142;2022-09-06T03:15:59;14.90;99.90
52609;DHT22;38503;48.544;12.142;2022-09-06T03:18:31;14.90;99.90
52609;DHT22;38503;48.544;12.142;2022-09-06T03:21:03;14.90;99.90
52609;DHT22;38503;48.544;12.142;2022-09-06T03:23:33;14.90;99.90
52609;DHT22;38503;48.544;12.142;2022-09-06T03:26:00;14.90;99.90
52609;DHT22;38503;48.544;12.142;2022-09-06T03:28:30;14.90;99.90
52609;DHT22;38503;48.544;12.142;2022-09-06T03:31:00;14.80;99.90
52609;DHT22;38503;48.544;12.142;2022-09-06T03:33:27;14.80;99.90
52609;DHT22;38503;48.544;12.142;2022-09-06T03:35:59;14.80;99.90
52609;DHT22;38503;48.544;12.142;2022-09-06T03:38:27;14.80;99.90
52609;DHT22;38503;48.544;12.142;2022-09-06T03:40:55;15.00;99.90
52609;DHT22;38503;48.544;12.142;2022-09-06T03:43:29;15.00;99.90
52609;DHT22;38503;48.544;12.142;2022-09-06T03:45:58;15.00;99.90
52609;DHT22;38503;48.544;12.142;2022-09-06T03:48:27;15.10;99.90
52609;DHT22;38503;48.544;12.142;2022-09-06T03:50:56;15.00;99.90
52609;DHT22;38503;48.544;12.142;2022-09-06T03:53:24;15.00;99.90
52609;DHT22;38503;48.544;12.142;2022-09-06T03:55:53;15.00;99.90
52609;DHT22;38503;48.544;12.142;2022-09-06T03:58:27;15.00;99.90
52609;DHT22;38503;48.544;12.142;2022-09-06T04:01:30;14.90;99.90
52609;DHT22;38503;48.544;12.142;2022-09-06T04:04:08;14.80;99.90
52609;DHT22;38503;48.544;12.142;2022-09-06T04:06:38;14.80;99.90
52609;DHT22;38503;48.544;12.142;2022-09-06T04:09:09;14.90;99.90
52609;DHT22;38503;48.544;12.142;2022-09-06T04:11:36;14.80;99.90
52609;DHT22;38503;48.544;12.142;2022-09-06T04:14:06;14.80;99.90
52609;DHT22;38503;48.544;12.142;2022-09-06T04:16:37;15.00;99.90
52609;DHT22;38503;48.544;12.142;2022-09-06T04:19:19;14.90;99.90
52609;DHT22;38503;48.544;12.142;2022-09-06T04:21:57;14.80;99.90
52609;DHT22;38503;48.544;12.142;2022-09-06T04:24:30;14.70;99.90
52609;DHT22;38503;48.544;12.142;2022-09-06T04:26:59;14.70;99.90
52609;DHT22;38503;48.544;12.142;2022-09-06T04:29:27;14.70;99.90
52609;DHT22;38503;48.544;12.142;2022-09-06T04:31:54;14.70;99.90
52609;DHT22;38503;48.544;12.142;2022-09-06T04:34:21;14.70;99.90
52609;DHT22;38503;48.544;12.142;2022-09-06T04:36:51;14.70;99.90
52609;DHT22;38503;48.544;12.142;2022-09-06T04:39:18;14.70;99.90
52609;DHT22;38503;48.544;12.142;2022-09-06T04:41:48;14.70;99.90
52609;DHT22;38503;48.544;12.142;2022-09-06T04:44:15;14.70;99.90
52609;DHT22;38503;48.544;12.142;2022-09-06T04:46:42;14.80;99.90
52609;DHT22;38503;48.544;12.142;2022-09-06T04:49:10;14.80;99.90
52609;DHT22;38503;48.544;12.142;2022-09-06T04:51:37;14.80;99.90
52609;DHT22;38503;48.544;12.142;2022-09-06T04:54:05;14.90;99.90
52609;DHT22;38503;48.544;12.142;2022-09-06T04:56:32;14.90;99.90
52609;DHT22;38503;48.544;12.142;2022-09-06T04:58:59;15.00;99.90
52609;DHT22;38503;48.544;12.142;2022-09-06T05:01:32;15.00;99.90
52609;DHT22;38503;48.544;12.142;2022-09-06T05:04:34;15.10;99.90
52609;DHT22;38503;48.544;12.142;2022-09-06T05:07:13;15.10;99.90
52609;DHT22;38503;48.544;12.142;2022-09-06T05:09:50;15.20;99.90
52609;DHT22;38503;48.544;12.142;2022-09-06T05:12:38;15.40;99.90
52609;DHT22;38503;48.544;12.142;2022-09-06T05:15:22;15.40;99.90
52609;DHT22;38503;48.544;12.142;2022-09-06T05:18:02;15.50;99.90
52609;DHT22;38503;48.544;12.142;2022-09-06T05:20:35;15.60;99.90
52609;DHT22;38503;48.544;12.142;2022-09-06T05:23:14;15.70;99.90
52609;DHT22;38503;48.544;12.142;2022-09-06T05:25:43;15.80;99.90
52609;DHT22;38503;48.544;12.142;2022-09-06T05:28:10;16.00;99.90
52609;DHT22;38503;48.544;12.142;2022-09-06T05:30:37;16.10;99.90
52609;DHT22;38503;48.544;12.142;2022-09-06T05:33:12;16.30;99.90
52609;DHT22;38503;48.544;12.142;2022-09-06T05:35:41;16.40;99.90
52609;DHT22;38503;48.544;12.142;2022-09-06T05:38:08;16.50;99.90
52609;DHT22;38503;48.544;12.142;2022-09-06T05:40:35;16.60;99.90
52609;DHT22;38503;48.544;12.142;2022-09-06T05:43:02;16.80;99.90
52609;DHT22;38503;48.544;12.142;2022-09-06T05:45:29;16.70;99.90
52609;DHT22;38503;48.544;12.142;2022-09-06T05:47:56;16.60;99.90
52609;DHT22;38503;48.544;12.142;2022-09-06T05:50:23;16.50;99.90
52609;DHT22;38503;48.544;12.142;2022-09-06T05:52:52;16.70;99.90
52609;DHT22;38503;48.544;12.142;2022-09-06T05:55:19;16.80;99.90
52609;DHT22;38503;48.544;12.142;2022-09-06T05:57:46;16.90;99.90
52609;DHT22;38503;48.544;12.142;2022-09-06T06:00:13;17.00;99.90
52609;DHT22;38503;48.544;12.142;2022-09-06T06:02:45;17.00;99.90
52609;DHT22;38503;48.544;12.142;2022-09-06T06:05:14;17.20;99.90
52609;DHT22;38503;48.544;12.142;2022-09-06T06:07:41;17.50;99.90
52609;DHT22;38503;48.544;12.142;2022-09-06T06:10:08;17.70;99.90
52609;DHT22;38503;48.544;12.142;2022-09-06T06:12:35;17.80;99.90
52609;DHT22;38503;48.544;12.142;2022-09-06T06:15:02;18.30;99.90
52609;DHT22;38503;48.544;12.142;2022-09-06T06:17:31;20.30;56.50
52609;DHT22;38503;48.544;12.142;2022-09-06T06:19:58;22.00;5.10
52609;DHT22;38503;48.544;12.142;2022-09-06T06:22:25;23.50;1.00
52609;DHT22;38503;48.544;12.142;2022-09-06T06:24:52;24.50;1.00
52609;DHT22;38503;48.544;12.142;2022-09-06T06:27:19;25.50;1.00
52609;DHT22;38503;48.544;12.142;2022-09-06T06:29:45;25.60;1.00
52609;DHT22;38503;48.544;12.142;2022-09-06T06:32:12;25.30;1.00
52609;DHT22;38503;48.544;12.142;2022-09-06T06:34:39;25.00;1.00
52609;DHT22;38503;48.544;12.142;2022-09-06T06:37:06;26.10;99.90
52609;DHT22;38503;48.544;12.142;2022-09-06T06:39:33;27.30;1.00
52609;DHT22;38503;48.544;12.142;2022-09-06T06:42:00;27.30;1.00
52609;DHT22;38503;48.544;12.142;2022-09-06T06:44:27;28.10;99.90
52609;DHT22;38503;48.544;12.142;2022-09-06T06:46:54;28.30;1.00
52609;DHT22;38503;48.544;12.142;2022-09-06T06:49:23;28.10;70.50
52609;DHT22;38503;48.544;12.142;2022-09-06T06:51:50;28.00;99.90
52609;DHT22;38503;48.544;12.142;2022-09-06T06:54:17;27.50;1.00
52609;DHT22;38503;48.544;12.142;2022-09-06T06:56:45;27.40;1.00
52609;DHT22;38503;48.544;12.142;2022-09-06T06:59:13;26.30;99.90
52609;DHT22;38503;48.544;12.142;2022-09-06T07:01:40;25.90;99.90
52609;DHT22;38503;48.544;12.142;2022-09-06T07:04:07;26.60;79.80
52609;DHT22;38503;48.544;12.142;2022-09-06T07:09:33;28.50;18.30
52609;DHT22;38503;48.544;12.142;2022-09-06T07:12:20;27.70;99.90
52609;DHT22;38503;48.544;12.142;2022-09-06T07:14:47;28.20;99.90
52609;DHT22;38503;48.544;12.142;2022-09-06T07:17:14;28.90;99.90
52609;DHT22;38503;48.544;12.142;2022-09-06T07:19:40;28.50;99.90
52609;DHT22;38503;48.544;12.142;2022-09-06T07:22:27;29.60;1.00
52609;DHT22;38503;48.544;12.142;2022-09-06T07:24:54;29.50;49.60
52609;DHT22;38503;48.544;12.142;2022-09-06T07:27:21;28.20;1.00
52609;DHT22;38503;48.544;12.142;2022-09-06T07:30:09;28.80;1.00
52609;DHT22;38503;48.544;12.142;2022-09-06T07:32:36;29.10;99.90
52609;DHT22;38503;48.544;12.142;2022-09-06T07:35:03;29.00;99.90
52609;DHT22;38503;48.544;12.142;2022-09-06T07:37:30;29.20;99.90
52609;DHT22;38503;48.544;12.142;2022-09-06T07:39:57;30.30;1.00
52609;DHT22;38503;48.544;12.142;2022-09-06T07:42:24;30.50;20.60
52609;DHT22;38503;48.544;12.142;2022-09-06T07:44:51;29.70;1.00
52609;DHT22;38503;48.544;12.142;2022-09-06T07:47:17;29.90;1.00
52609;DHT22;38503;48.544;12.142;2022-09-06T07:50:04;30.30;1.00
52609;DHT22;38503;48.544;12.142;2022-09-06T07:52:51;29.50;1.00
52609;DHT22;38503;48.544;12.142;2022-09-06T07:55:38;30.50;1.00
52609;DHT22;38503;48.544;12.142;2022-09-06T07:58:05;30.50;1.00
52609;DHT22;38503;48.544;12.142;2022-09-06T08:00:32;30.10;99.90
52609;DHT22;38503;48.544;12.142;2022-09-06T08:02:59;31.00;1.00
52609;DHT22;38503;48.544;12.142;2022-09-06T08:05:26;29.20;27.10
52609;DHT22;38503;48.544;12.142;2022-09-06T08:08:12;27.70;1.00
52609;DHT22;38503;48.544;12.142;2022-09-06T08:10:59;27.20;99.90
52609;DHT22;38503;48.544;12.142;2022-09-06T08:13:26;26.60;1.00
52609;DHT22;38503;48.544;12.142;2022-09-06T08:16:01;26.90;1.00
52609;DHT22;38503;48.544;12.142;2022-09-06T08:18:28;26.80;1.00
52609;DHT22;38503;48.544;12.142;2022-09-06T08:20:55;26.90;1.00
52609;DHT22;38503;48.544;12.142;2022-09-06T08:23:22;26.40;1.00
52609;DHT22;38503;48.544;12.142;2022-09-06T08:25:58;26.40;1.00
52609;DHT22;38503;48.544;12.142;2022-09-06T08:28:25;26.20;96.20
52609;DHT22;38503;48.544;12.142;2022-09-06T08:30:54;26.30;99.90
52609;DHT22;38503;48.544;12.142;2022-09-06T08:33:21;26.20;99.90
52609;DHT22;38503;48.544;12.142;2022-09-06T08:35:55;25.40;1.00
52609;DHT22;38503;48.544;12.142;2022-09-06T08:38:23;25.50;1.00
52609;DHT22;38503;48.544;12.142;2022-09-06T08:40:51;24.60;1.00
52609;DHT22;38503;48.544;12.142;2022-09-06T08:43:20;24.60;1.00
52609;DHT22;38503;48.544;12.142;2022-09-06T08:45:55;24.50;1.00
52609;DHT22;38503;48.544;12.142;2022-09-06T08:48:24;24.90;1.00
52609;DHT22;38503;48.544;12.142;2022-09-06T08:53:33;25.20;1.00
52609;DHT22;38503;48.544;12.142;2022-09-06T08:56:18;25.00;1.00
52609;DHT22;38503;48.544;12.142;2022-09-06T08:59:11;25.60;99.90
52609;DHT22;38503;48.544;12.142;2022-09-06T09:04:28;25.20;99.90
52609;DHT22;38503;48.544;12.142;2022-09-06T09:07:10;26.60;1.00
52609;DHT22;38503;48.544;12.142;2022-09-06T09:09:39;27.20;55.60
52609;DHT22;38503;48.544;12.142;2022-09-06T09:12:06;28.30;99.90
52609;DHT22;38503;48.544;12.142;2022-09-06T09:14:36;28.80;41.50
52609;DHT22;38503;48.544;12.142;2022-09-06T09:17:11;29.40;1.00
52609;DHT22;38503;48.544;12.142;2022-09-06T09:19:41;30.00;1.00
52609;DHT22;38503;48.544;12.142;2022-09-06T09:22:09;31.30;1.00
52609;DHT22;38503;48.544;12.142;2022-09-06T09:24:36;31.80;1.00
52609;DHT22;38503;48.544;12.142;2022-09-06T09:27:07;31.40;1.00
52609;DHT22;38503;48.544;12.142;2022-09-06T09:29:56;30.80;1.00
52609;DHT22;38503;48.544;12.142;2022-09-06T09:32:44;30.90;1.00
52609;DHT22;38503;48.544;12.142;2022-09-06T09:35:29;30.60;1.00
52609;DHT22;38503;48.544;12.142;2022-09-06T09:38:07;31.00;1.00
52609;DHT22;38503;48.544;12.142;2022-09-06T09:40:57;31.50;1.00
52609;DHT22;38503;48.544;12.142;2022-09-06T09:43:29;32.30;99.90
52609;DHT22;38503;48.544;12.142;2022-09-06T09:46:13;32.50;99.90
52609;DHT22;38503;48.544;12.142;2022-09-06T09:54:08;34.00;1.00
52609;DHT22;38503;48.544;12.142;2022-09-06T09:59:27;32.70;1.20
52609;DHT22;38503;48.544;12.142;2022-09-06T10:01:59;30.30;1.00
52609;DHT22;38503;48.544;12.142;2022-09-06T10:04:32;29.70;99.90
52609;DHT22;38503;48.544;12.142;2022-09-06T10:07:09;31.00;1.00
52609;DHT22;38503;48.544;12.142;2022-09-06T10:09:43;32.00;99.90
52609;DHT22;38503;48.544;12.142;2022-09-06T10:12:38;32.60;99.90
52609;DHT22;38503;48.544;12.142;2022-09-06T10:15:08;33.20;83.30
52609;DHT22;38503;48.544;12.142;2022-09-06T10:17:49;34.00;1.00
52609;DHT22;38503;48.544;12.142;2022-09-06T10:20:17;34.60;1.00
52609;DHT22;38503;48.544;12.142;2022-09-06T10:25:45;33.80;1.00
52609;DHT22;38503;48.544;12.142;2022-09-06T10:28:34;33.70;1.00
52609;DHT22;38503;48.544;12.142;2022-09-06T10:31:27;34.10;1.00
52609;DHT22;38503;48.544;12.142;2022-09-06T10:42:28;32.20;1.00
52609;DHT22;38503;48.544;12.142;2022-09-06T10:48:00;34.00;1.00
52609;DHT22;38503;48.544;12.142;2022-09-06T10:50:49;34.70;1.00
52609;DHT22;38503;48.544;12.142;2022-09-06T10:53:39;34.40;1.00
52609;DHT22;38503;48.544;12.142;2022-09-06T10:58:47;33.80;1.00
52609;DHT22;38503;48.544;12.142;2022-09-06T11:01:39;33.10;1.00
52609;DHT22;38503;48.544;12.142;2022-09-06T11:04:17;32.40;1.00
52609;DHT22;38503;48.544;12.142;2022-09-06T11:06:51;33.20;1.00
52609;DHT22;38503;48.544;12.142;2022-09-06T11:14:53;33.70;1.00
52609;DHT22;38503;48.544;12.142;2022-09-06T11:20:13;34.50;1.00
52609;DHT22;38503;48.544;12.142;2022-09-06T11:25:39;34.10;1.00
52609;DHT22;38503;48.544;12.142;2022-09-06T11:28:16;34.80;1.00
52609;DHT22;38503;48.544;12.142;2022-09-06T11:30:46;34.80;1.00
52609;DHT22;38503;48.544;12.142;2022-09-06T11:33:28;35.20;1.00
52609;DHT22;38503;48.544;12.142;2022-09-06T11:37:07;35.60;1.00
52609;DHT22;38503;48.544;12.142;2022-09-06T11:39:24;35.30;1.00
52609;DHT22;38503;48.544;12.142;2022-09-06T11:45:39;33.60;1.00
52609;DHT22;38503;48.544;12.142;2022-09-06T11:53:31;33.70;1.00
52609;DHT22;38503;48.544;12.142;2022-09-06T11:58:48;34.40;1.00
52609;DHT22;38503;48.544;12.142;2022-09-06T12:07:05;34.30;1.00
52609;DHT22;38503;48.544;12.142;2022-09-06T12:09:37;35.00;1.00
52609;DHT22;38503;48.544;12.142;2022-09-06T12:12:04;35.30;1.00
52609;DHT22;38503;48.544;12.142;2022-09-06T12:14:37;34.90;1.00
52609;DHT22;38503;48.544;12.142;2022-09-06T12:19:49;32.90;1.00
52609;DHT22;38503;48.544;12.142;2022-09-06T12:25:03;32.40;1.00
52609;DHT22;38503;48.544;12.142;2022-09-06T12:27:35;32.60;1.00
52609;DHT22;38503;48.544;12.142;2022-09-06T12:30:08;31.90;1.00
52609;DHT22;38503;48.544;12.142;2022-09-06T12:32:40;30.80;67.30
52609;DHT22;38503;48.544;12.142;2022-09-06T12:35:20;31.20;99.90
52609;DHT22;38503;48.544;12.142;2022-09-06T12:38:15;31.90;99.90
52609;DHT22;38503;48.544;12.142;2022-09-06T12:40:47;32.30;3.00
52609;DHT22;38503;48.544;12.142;2022-09-06T12:43:18;31.50;76.90
52609;DHT22;38503;48.544;12.142;2022-09-06T12:45:48;31.10;99.90
52609;DHT22;38503;48.544;12.142;2022-09-06T12:48:33;31.60;99.90
52609;DHT22;38503;48.544;12.142;2022-09-06T12:51:06;31.80;29.00
52609;DHT22;38503;48.544;12.142;2022-09-06T12:53:34;31.70;50.30
52609;DHT22;38503;48.544;12.142;2022-09-06T12:58:33;31.40;99.90
52609;DHT22;38503;48.544;12.142;2022-09-06T13:01:24;31.80;93.50
52609;DHT22;38503;48.544;12.142;2022-09-06T13:06:33;30.80;99.90
52609;DHT22;38503;48.544;12.142;2022-09-06T13:09:02;30.50;99.90
52609;DHT22;38503;48.544;12.142;2022-09-06T13:11:35;30.90;99.90
52609;DHT22;38503;48.544;12.142;2022-09-06T13:14:09;31.00;99.90
52609;DHT22;38503;48.544;12.142;2022-09-06T13:16:45;30.80;99.90
52609;DHT22;38503;48.544;12.142;2022-09-06T13:19:15;31.00;99.90
52609;DHT22;38503;48.544;12.142;2022-09-06T13:21:44;30.80;99.90
52609;DHT22;38503;48.544;12.142;2022-09-06T13:24:44;30.40;99.90
52609;DHT22;38503;48.544;12.142;2022-09-06T13:27:34;31.00;99.90
52609;DHT22;38503;48.544;12.142;2022-09-06T13:30:07;31.20;99.90
52609;DHT22;38503;48.544;12.142;2022-09-06T13:32:36;31.30;99.90
52609;DHT22;38503;48.544;12.142;2022-09-06T13:35:24;30.80;99.90
52609;DHT22;38503;48.544;12.142;2022-09-06T13:37:52;30.60;99.90
52609;DHT22;38503;48.544;12.142;2022-09-06T13:40:41;30.50;99.90
52609;DHT22;38503;48.544;12.142;2022-09-06T13:43:28;30.50;1.00
52609;DHT22;38503;48.544;12.142;2022-09-06T13:46:06;30.60;99.90
52609;DHT22;38503;48.544;12.142;2022-09-06T13:48:33;30.20;99.90
52609;DHT22;38503;48.544;12.142;2022-09-06T13:51:06;30.30;1.00
52609;DHT22;38503;48.544;12.142;2022-09-06T13:53:33;30.10;1.00
52609;DHT22;38503;48.544;12.142;2022-09-06T13:56:01;30.20;1.00
52609;DHT22;38503;48.544;12.142;2022-09-06T13:58:28;30.10;99.90
52609;DHT22;38503;48.544;12.142;2022-09-06T14:00:55;29.90;1.00
52609;DHT22;38503;48.544;12.142;2022-09-06T14:03:27;29.50;1.00
52609;DHT22;38503;48.544;12.142;2022-09-06T14:05:55;29.40;99.90
52609;DHT22;38503;48.544;12.142;2022-09-06T14:08:22;29.40;99.90
52609;DHT22;38503;48.544;12.142;2022-09-06T14:10:50;29.40;99.90
52609;DHT22;38503;48.544;12.142;2022-09-06T14:13:18;29.70;1.00
52609;DHT22;38503;48.544;12.142;2022-09-06T14:15:46;29.70;48.40
52609;DHT22;38503;48.544;12.142;2022-09-06T14:18:15;29.40;1.00
52609;DHT22;38503;48.544;12.142;2022-09-06T14:20:53;29.40;99.90
52609;DHT22;38503;48.544;12.142;2022-09-06T14:23:21;29.30;1.00
52609;DHT22;38503;48.544;12.142;2022-09-06T14:25:53;29.30;99.90
52609;DHT22;38503;48.544;12.142;2022-09-06T14:28:20;29.00;1.00
52609;DHT22;38503;48.544;12.142;2022-09-06T14:30:47;28.70;1.00
52609;DHT22;38503;48.544;12.142;2022-09-06T14:33:14;28.40;99.90
52609;DHT22;38503;48.544;12.142;2022-09-06T14:35:41;28.40;1.00
52609;DHT22;38503;48.544;12.142;2022-09-06T14:38:08;28.30;1.00
52609;DHT22;38503;48.544;12.142;2022-09-06T14:40:36;28.30;8.10
52609;DHT22;38503;48.544;12.142;2022-09-06T14:43:06;28.40;1.00
52609;DHT22;38503;48.544;12.142;2022-09-06T14:45:35;28.40;1.00
52609;DHT22;38503;48.544;12.142;2022-09-06T14:48:04;28.40;1.00
52609;DHT22;38503;48.544;12.142;2022-09-06T14:50:31;28.40;1.00
52609;DHT22;38503;48.544;12.142;2022-09-06T14:52:58;28.40;1.00
52609;DHT22;38503;48.544;12.142;2022-09-06T14:55:25;28.40;1.00
52609;DHT22;38503;48.544;12.142;2022-09-06T14:57:53;28.60;1.00
52609;DHT22;38503;48.544;12.142;2022-09-06T15:00:20;28.70;1.00
52609;DHT22;38503;48.544;12.142;2022-09-06T15:02:48;28.70;99.90
52609;DHT22;38503;48.544;12.142;2022-09-06T15:05:15;28.70;99.90
52609;DHT22;38503;48.544;12.142;2022-09-06T15:07:42;28.80;99.90
52609;DHT22;38503;48.544;12.142;2022-09-06T15:10:12;28.60;1.00
52609;DHT22;38503;48.544;12.142;2022-09-06T15:12:42;28.40;99.90
52609;DHT22;38503;48.544;12.142;2022-09-06T15:15:09;28.10;1.00
52609;DHT22;38503;48.544;12.142;2022-09-06T15:17:35;27.90;99.90
52609;DHT22;38503;48.544;12.142;2022-09-06T15:20:03;28.00;1.00
52609;DHT22;38503;48.544;12.142;2022-09-06T15:22:30;28.00;1.00
52609;DHT22;38503;48.544;12.142;2022-09-06T15:24:57;27.80;99.90
52609;DHT22;38503;48.544;12.142;2022-09-06T15:27:24;27.60;1.00
52609;DHT22;38503;48.544;12.142;2022-09-06T15:29:51;27.60;1.00
52609;DHT22;38503;48.544;12.142;2022-09-06T15:32:18;27.70;33.20
52609;DHT22;38503;48.544;12.142;2022-09-06T15:34:44;27.80;1.00
52609;DHT22;38503;48.544;12.142;2022-09-06T15:37:14;27.90;99.90
52609;DHT22;38503;48.544;12.142;2022-09-06T15:39:41;28.10;99.90
52609;DHT22;38503;48.544;12.142;2022-09-06T15:42:09;28.10;99.90
52609;DHT22;38503;48.544;12.142;2022-09-06T15:44:35;27.70;1.00
52609;DHT22;38503;48.544;12.142;2022-09-06T15:47:02;27.50;1.00
52609;DHT22;38503;48.544;12.142;2022-09-06T15:49:31;27.40;1.00
52609;DHT22;38503;48.544;12.142;2022-09-06T15:51:59;27.30;99.90
52609;DHT22;38503;48.544;12.142;2022-09-06T15:54:27;27.10;1.00
52609;DHT22;38503;48.544;12.142;2022-09-06T15:57:14;27.00;99.90
52609;DHT22;38503;48.544;12.142;2022-09-06T15:59:42;26.90;99.90
52609;DHT22;38503;48.544;12.142;2022-09-06T16:02:09;27.00;66.20
52609;DHT22;38503;48.544;12.142;2022-09-06T16:04:36;27.10;1.00
52609;DHT22;38503;48.544;12.142;2022-09-06T16:07:04;27.00;13.10
52609;DHT22;38503;48.544;12.142;2022-09-06T16:09:31;27.00;61.30
52609;DHT22;38503;48.544;12.142;2022-09-06T16:11:58;27.20;1.00
52609;DHT22;38503;48.544;12.142;2022-09-06T16:14:25;27.40;79.20
52609;DHT22;38503;48.544;12.142;2022-09-06T16:16:53;27.40;1.00
52609;DHT22;38503;48.544;12.142;2022-09-06T16:19:22;27.20;1.00
52609;DHT22;38503;48.544;12.142;2022-09-06T16:21:51;27.00;1.00
52609;DHT22;38503;48.544;12.142;2022-09-06T16:24:18;27.00;20.90
52609;DHT22;38503;48.544;12.142;2022-09-06T16:26:45;26.80;99.90
52609;DHT22;38503;48.544;12.142;2022-09-06T16:29:14;26.70;1.00
52609;DHT22;38503;48.544;12.142;2022-09-06T16:31:42;26.70;99.90
52609;DHT22;38503;48.544;12.142;2022-09-06T16:34:10;26.60;99.90
52609;DHT22;38503;48.544;12.142;2022-09-06T16:36:37;26.50;99.90
52609;DHT22;38503;48.544;12.142;2022-09-06T16:39:06;26.50;1.00
52609;DHT22;38503;48.544;12.142;2022-09-06T16:41:41;26.50;99.90
52609;DHT22;38503;48.544;12.142;2022-09-06T16:44:10;26.40;1.00
52609;DHT22;38503;48.544;12.142;2022-09-06T16:46:44;26.30;99.90
52609;DHT22;38503;48.544;12.142;2022-09-06T16:49:12;26.40;1.00
52609;DHT22;38503;48.544;12.142;2022-09-06T16:51:39;26.40;1.00
52609;DHT22;38503;48.544;12.142;2022-09-06T16:54:06;26.40;1.00
52609;DHT22;38503;48.544;12.142;2022-09-06T16:56:33;26.30;66.00
52609;DHT22;38503;48.544;12.142;2022-09-06T16:59:03;26.30;99.90
52609;DHT22;38503;48.544;12.142;2022-09-06T17:01:32;26.30;1.00
52609;DHT22;38503;48.544;12.142;2022-09-06T17:04:00;26.20;1.00
52609;DHT22;38503;48.544;12.142;2022-09-06T17:06:29;26.10;44.70
52609;DHT22;38503;48.544;12.142;2022-09-06T17:08:56;26.00;1.00
52609;DHT22;38503;48.544;12.142;2022-09-06T17:11:24;25.90;40.20
52609;DHT22;38503;48.544;12.142;2022-09-06T17:13:53;25.90;99.90
52609;DHT22;38503;48.544;12.142;2022-09-06T17:16:20;25.80;99.90
52609;DHT22;38503;48.544;12.142;2022-09-06T17:19:06;25.60;99.90
52609;DHT22;38503;48.544;12.142;2022-09-06T17:21:33;25.50;99.90
52609;DHT22;38503;48.544;12.142;2022-09-06T17:24:01;25.50;99.90
52609;DHT22;38503;48.544;12.142;2022-09-06T17:26:33;25.40;99.90
52609;DHT22;38503;48.544;12.142;2022-09-06T17:29:00;25.30;99.90
52609;DHT22;38503;48.544;12.142;2022-09-06T17:31:27;25.30;99.90